Time;durP1;ratioP1;P1;durP2;ratioP2;P2;SDS_P1;SDS_P2;PMS_P1;PMS_P2;Temp;Humidity;BMP_temperature;BMP_pressure;BME280_temperature;BME280_humidity;BME280_pressure;Samples;Min_cycle;Max_cycle;Signal;HPM_P1;HPM_P2
2023/12/18 00:01:33;;;;;;;;;29.75;25.75;;;;;;;;5090966;27;45347;-70
2023/12/18 00:04:02;;;;;;;;;23.50;20.25;;;;;;;;5092200;27;45569;-69
2023/12/18 00:06:28;;;;;;;;;24.75;20.50;;;;;;;;5091588;27;45360;-69
2023/12/18 00:08:53;;;;;;;;;14.67;12.33;;;;;;;;5087822;27;47112;-69
2023/12/18 00:11:18;;;;;;;;;28.25;20.50;;;;;;;;5088140;27;46003;-69
2023/12/18 00:13:43;;;;;;;;;22.75;16.50;;;;;;;;5088878;27;45562;-71
2023/12/18 00:16:08;;;;;;;;;18.67;16.33;;;;;;;;5094375;27;45524;-69
2023/12/18 00:18:34;;;;;;;;;25.50;23.00;;;;;;;;5091105;27;45220;-68
2023/12/18 00:20:59;;;;;;;;;19.33;14.33;;;;;;;;5088712;27;45430;-68
2023/12/18 00:23:24;;;;;;;;;27.67;19.00;;;;;;;;5084033;27;45352;-68
2023/12/18 00:25:49;;;;;;;;;22.67;15.67;;;;;;;;5088636;27;45265;-69
2023/12/18 00:28:14;;;;;;;;;26.00;16.00;;;;;;;;5091269;27;45778;-68
2023/12/18 00:30:40;;;;;;;;;26.75;19.00;;;;;;;;5084517;27;46065;-69
2023/12/18 00:33:05;;;;;;;;;23.33;18.33;;;;;;;;5078643;27;45303;-71
2023/12/18 00:35:30;;;;;;;;;19.75;17.50;;;;;;;;5082557;27;45900;-70
2023/12/18 00:37:56;;;;;;;;;16.25;15.75;;;;;;;;5097284;27;45997;-68
2023/12/18 00:40:21;;;;;;;;;24.00;19.75;;;;;;;;5095455;27;46482;-72
2023/12/18 00:42:47;;;;;;;;;18.25;15.00;;;;;;;;5097042;27;45327;-68
2023/12/18 00:45:13;;;;;;;;;27.25;18.25;;;;;;;;5095846;27;45423;-71
2023/12/18 00:47:39;;;;;;;;;23.25;19.75;;;;;;;;5092454;27;45473;-69
2023/12/18 00:50:07;;;;;;;;;22.25;19.75;;;;;;;;5095288;27;46207;-70
2023/12/18 00:52:33;;;;;;;;;23.75;17.75;;;;;;;;5093051;27;46790;-70
2023/12/18 00:54:58;;;;;;;;;26.00;18.75;;;;;;;;5092379;27;45504;-69
2023/12/18 00:57:23;;;;;;;;;20.67;15.00;;;;;;;;5090825;27;45504;-69
2023/12/18 00:59:48;;;;;;;;;24.67;19.00;;;;;;;;5094202;27;47045;-69
2023/12/18 01:02:13;;;;;;;;;18.33;18.33;;;;;;;;5094258;27;45452;-69
2023/12/18 01:04:38;;;;;;;;;27.00;19.00;;;;;;;;5094850;27;45700;-69
2023/12/18 01:07:04;;;;;;;;;20.33;19.33;;;;;;;;5093659;27;45737;-69
2023/12/18 01:09:29;;;;;;;;;17.00;12.25;;;;;;;;5084730;27;46870;-69
2023/12/18 01:11:54;;;;;;;;;29.67;22.33;;;;;;;;5090280;27;45370;-71
2023/12/18 01:14:19;;;;;;;;;23.33;14.67;;;;;;;;5095198;27;45425;-72
2023/12/18 01:16:45;;;;;;;;;22.75;19.00;;;;;;;;5095759;27;45631;-69
2023/12/18 01:19:10;;;;;;;;;20.25;16.00;;;;;;;;5091364;27;46817;-71
2023/12/18 01:21:35;;;;;;;;;18.67;13.67;;;;;;;;5095423;27;45465;-69
2023/12/18 01:24:00;;;;;;;;;21.00;18.75;;;;;;;;5093575;27;45497;-69
2023/12/18 01:26:25;;;;;;;;;20.75;19.25;;;;;;;;5095657;27;45310;-69
2023/12/18 01:28:50;;;;;;;;;24.00;17.33;;;;;;;;5091059;27;46752;-69
2023/12/18 01:31:25;;;;;;;;;21.00;13.33;;;;;;;;5095076;27;45562;-70
2023/12/18 01:33:52;;;;;;;;;23.25;18.50;;;;;;;;5096005;27;45386;-69
2023/12/18 01:36:17;;;;;;;;;19.00;16.00;;;;;;;;5094641;27;45662;-69
2023/12/18 01:38:42;;;;;;;;;23.00;19.00;;;;;;;;5090695;27;45682;-68
2023/12/18 01:41:07;;;;;;;;;17.00;14.00;;;;;;;;5091186;27;46838;-68
2023/12/18 01:43:33;;;;;;;;;16.25;13.25;;;;;;;;5094283;27;45419;-71
2023/12/18 01:45:59;;;;;;;;;19.00;15.00;;;;;;;;5090766;27;45382;-69
2023/12/18 01:48:25;;;;;;;;;21.50;19.75;;;;;;;;5094982;27;45756;-69
2023/12/18 01:50:50;;;;;;;;;15.50;14.00;;;;;;;;5092263;27;45571;-69
2023/12/18 01:53:16;;;;;;;;;18.50;15.75;;;;;;;;5072474;27;47162;-69
2023/12/18 01:55:41;;;;;;;;;22.25;16.00;;;;;;;;5092704;27;45520;-68
2023/12/18 01:58:06;;;;;;;;;16.67;14.33;;;;;;;;5092003;27;46516;-70
2023/12/18 02:00:31;;;;;;;;;20.00;13.75;;;;;;;;5094462;27;45406;-69
2023/12/18 02:02:57;;;;;;;;;21.33;14.33;;;;;;;;5071588;27;45415;-69
2023/12/18 02:05:23;;;;;;;;;22.25;15.75;;;;;;;;5096181;27;45446;-70
2023/12/18 02:07:48;;;;;;;;;18.00;16.25;;;;;;;;5085541;27;45787;-70
2023/12/18 02:10:13;;;;;;;;;19.75;14.50;;;;;;;;5091019;27;45425;-70
2023/12/18 02:12:38;;;;;;;;;21.50;18.00;;;;;;;;5090649;27;45280;-71
2023/12/18 02:15:04;;;;;;;;;24.25;16.75;;;;;;;;5092135;27;45379;-69
2023/12/18 02:17:29;;;;;;;;;15.75;8.50;;;;;;;;5093236;27;46795;-70
2023/12/18 02:20:05;;;;;;;;;14.00;13.00;;;;;;;;5084922;27;45549;-71
2023/12/18 02:22:35;;;;;;;;;19.50;15.75;;;;;;;;5092444;27;45533;-69
2023/12/18 02:25:00;;;;;;;;;22.50;17.75;;;;;;;;5087599;27;45410;-69
2023/12/18 02:27:25;;;;;;;;;21.67;14.00;;;;;;;;5092787;27;46922;-70
2023/12/18 02:29:50;;;;;;;;;17.25;13.25;;;;;;;;5086936;27;45425;-69
2023/12/18 02:32:15;;;;;;;;;14.00;10.67;;;;;;;;5090230;27;45318;-69
2023/12/18 02:34:41;;;;;;;;;19.67;15.00;;;;;;;;5095153;27;45613;-69
2023/12/18 02:37:06;;;;;;;;;22.67;18.33;;;;;;;;5069267;27;48523;-69
2023/12/18 02:39:31;;;;;;;;;14.67;14.67;;;;;;;;5089834;27;45456;-68
2023/12/18 02:41:56;;;;;;;;;17.00;14.75;;;;;;;;5089974;27;45767;-68
2023/12/18 02:44:21;;;;;;;;;27.00;18.00;;;;;;;;5091854;27;45465;-69
2023/12/18 02:46:47;;;;;;;;;19.33;15.00;;;;;;;;5090075;27;45929;-68
2023/12/18 02:49:12;;;;;;;;;20.50;15.50;;;;;;;;5090425;27;45192;-70
2023/12/18 02:51:37;;;;;;;;;17.67;14.67;;;;;;;;5093604;27;45160;-70
2023/12/18 02:54:02;;;;;;;;;16.33;15.00;;;;;;;;5088763;27;45428;-69
2023/12/18 02:56:28;;;;;;;;;16.00;15.25;;;;;;;;5092303;27;46625;-68
2023/12/18 02:58:53;;;;;;;;;16.00;13.50;;;;;;;;5090321;27;45355;-70
2023/12/18 03:01:18;;;;;;;;;18.75;14.75;;;;;;;;5090331;27;45418;-69
2023/12/18 03:03:43;;;;;;;;;17.67;17.00;;;;;;;;5091156;27;45684;-69
2023/12/18 03:06:09;;;;;;;;;22.33;14.33;;;;;;;;5091379;27;46475;-69
2023/12/18 03:08:34;;;;;;;;;24.50;14.75;;;;;;;;5091934;27;45191;-72
2023/12/18 03:10:59;;;;;;;;;26.67;19.67;;;;;;;;5091522;27;46079;-69
2023/12/18 03:13:24;;;;;;;;;18.00;13.33;;;;;;;;5082999;27;45369;-69
2023/12/18 03:15:49;;;;;;;;;23.00;17.67;;;;;;;;5083484;27;46475;-69
2023/12/18 03:18:14;;;;;;;;;20.00;15.50;;;;;;;;5085206;27;47073;-72
2023/12/18 03:20:40;;;;;;;;;22.67;18.00;;;;;;;;5087771;27;45619;-68
2023/12/18 03:23:05;;;;;;;;;18.00;15.67;;;;;;;;5093384;27;45514;-68
2023/12/18 03:25:30;;;;;;;;;21.33;17.33;;;;;;;;5070817;27;47460;-69
2023/12/18 03:27:55;;;;;;;;;20.67;18.00;;;;;;;;5088759;27;45389;-70
2023/12/18 03:30:20;;;;;;;;;27.25;18.75;;;;;;;;5089124;27;45383;-71
2023/12/18 03:32:46;;;;;;;;;22.00;14.33;;;;;;;;5093900;27;45398;-69
2023/12/18 03:35:11;;;;;;;;;23.00;19.25;;;;;;;;5086655;27;45935;-72
2023/12/18 03:37:36;;;;;;;;;23.00;17.75;;;;;;;;5092724;27;45377;-70
2023/12/18 03:40:01;;;;;;;;;22.33;18.67;;;;;;;;5093999;27;45512;-69
2023/12/18 03:42:26;;;;;;;;;19.00;18.00;;;;;;;;5088376;27;45575;-71
2023/12/18 03:44:51;;;;;;;;;16.33;16.33;;;;;;;;5091893;27;46772;-72
2023/12/18 03:47:17;;;;;;;;;21.00;19.00;;;;;;;;5092636;27;46740;-70
2023/12/18 03:49:42;;;;;;;;;24.25;14.75;;;;;;;;5081582;27;45530;-69
2023/12/18 03:52:07;;;;;;;;;26.33;19.33;;;;;;;;5082784;27;45272;-69
2023/12/18 03:54:32;;;;;;;;;22.33;16.67;;;;;;;;5091327;27;45961;-70
2023/12/18 03:56:57;;;;;;;;;21.67;17.67;;;;;;;;5085430;27;45265;-69
2023/12/18 03:59:23;;;;;;;;;26.67;21.67;;;;;;;;5090794;27;45493;-69
2023/12/18 04:01:48;;;;;;;;;30.00;18.00;;;;;;;;5091394;27;45405;-68
2023/12/18 04:04:13;;;;;;;;;19.67;18.00;;;;;;;;5066590;27;48581;-71
2023/12/18 04:06:41;;;;;;;;;16.75;16.75;;;;;;;;5089467;27;45402;-69
2023/12/18 04:09:06;;;;;;;;;26.25;17.00;;;;;;;;5094074;27;45422;-69
2023/12/18 04:11:32;;;;;;;;;21.67;19.33;;;;;;;;5094729;27;45558;-70
2023/12/18 04:13:57;;;;;;;;;22.75;20.00;;;;;;;;5092257;27;45579;-69
2023/12/18 04:16:22;;;;;;;;;28.33;22.00;;;;;;;;5093880;27;45430;-69
2023/12/18 04:18:48;;;;;;;;;23.25;18.00;;;;;;;;5093591;27;45662;-71
2023/12/18 04:21:13;;;;;;;;;27.50;20.50;;;;;;;;5092390;27;45540;-68
2023/12/18 04:23:38;;;;;;;;;23.67;19.67;;;;;;;;5093604;27;46541;-69
2023/12/18 04:26:03;;;;;;;;;27.33;20.00;;;;;;;;5091292;27;45453;-69
2023/12/18 04:28:29;;;;;;;;;21.33;16.33;;;;;;;;5093443;27;46798;-69
2023/12/18 04:30:54;;;;;;;;;19.00;15.00;;;;;;;;5093537;27;45374;-69
2023/12/18 04:33:19;;;;;;;;;18.67;14.67;;;;;;;;5077119;27;47921;-69
2023/12/18 04:35:44;;;;;;;;;18.00;15.67;;;;;;;;5093624;27;45351;-71
2023/12/18 04:38:09;;;;;;;;;21.25;21.25;;;;;;;;5091313;27;45416;-70
2023/12/18 04:40:35;;;;;;;;;22.33;14.67;;;;;;;;5092650;27;45378;-71
2023/12/18 04:43:00;;;;;;;;;19.00;15.00;;;;;;;;5090558;27;45651;-69
2023/12/18 04:45:25;;;;;;;;;22.33;19.00;;;;;;;;5097509;27;45446;-69
2023/12/18 04:47:51;;;;;;;;;22.75;17.50;;;;;;;;5091285;27;45496;-73
2023/12/18 04:50:16;;;;;;;;;21.75;17.50;;;;;;;;5094920;27;45514;-69
2023/12/18 04:52:41;;;;;;;;;23.75;16.50;;;;;;;;5092224;27;46023;-69
2023/12/18 04:55:07;;;;;;;;;22.75;17.75;;;;;;;;5094829;27;45370;-69
2023/12/18 04:57:32;;;;;;;;;28.25;17.50;;;;;;;;5091449;27;45639;-68
2023/12/18 04:59:57;;;;;;;;;22.25;14.75;;;;;;;;5090506;27;45561;-69
2023/12/18 05:02:22;;;;;;;;;30.50;21.50;;;;;;;;5092258;27;45546;-67
2023/12/18 05:04:47;;;;;;;;;17.33;17.00;;;;;;;;5092864;27;45417;-72
2023/12/18 05:07:13;;;;;;;;;14.00;14.00;;;;;;;;5097138;27;45496;-69
2023/12/18 05:09:39;;;;;;;;;20.33;14.33;;;;;;;;5089058;27;45410;-68
2023/12/18 05:12:04;;;;;;;;;21.75;16.50;;;;;;;;5086562;27;45789;-70
2023/12/18 05:14:29;;;;;;;;;18.00;18.00;;;;;;;;5067667;27;45582;-69
2023/12/18 05:16:55;;;;;;;;;18.00;17.67;;;;;;;;5078965;27;45352;-72
2023/12/18 05:19:20;;;;;;;;;21.25;15.50;;;;;;;;5091947;27;45510;-72
2023/12/18 05:21:45;;;;;;;;;18.00;16.00;;;;;;;;5090119;27;46597;-69
2023/12/18 05:24:10;;;;;;;;;18.67;16.67;;;;;;;;5091327;27;45587;-68
2023/12/18 05:26:35;;;;;;;;;22.00;16.67;;;;;;;;5092805;27;45627;-70
2023/12/18 05:29:00;;;;;;;;;22.67;17.00;;;;;;;;5086719;27;45355;-68
2023/12/18 05:31:26;;;;;;;;;20.75;18.00;;;;;;;;5087936;27;45550;-72
2023/12/18 05:33:51;;;;;;;;;21.50;13.50;;;;;;;;5088287;27;45465;-69
2023/12/18 05:36:16;;;;;;;;;22.25;18.25;;;;;;;;5095898;27;45425;-69
2023/12/18 05:38:42;;;;;;;;;18.50;17.00;;;;;;;;5096961;27;45397;-68
2023/12/18 05:41:08;;;;;;;;;16.75;13.25;;;;;;;;5077571;27;46669;-72
2023/12/18 05:43:34;;;;;;;;;17.75;14.00;;;;;;;;5092945;27;45229;-70
2023/12/18 05:45:59;;;;;;;;;21.75;15.25;;;;;;;;5086813;27;45338;-72
2023/12/18 05:48:24;;;;;;;;;23.67;14.67;;;;;;;;5088942;27;45531;-69
2023/12/18 05:50:49;;;;;;;;;21.67;18.00;;;;;;;;5083596;27;46369;-70
2023/12/18 05:53:14;;;;;;;;;17.00;14.67;;;;;;;;5095053;27;46341;-71
2023/12/18 05:55:39;;;;;;;;;19.33;16.33;;;;;;;;5094683;27;45460;-69
2023/12/18 05:58:05;;;;;;;;;18.00;16.67;;;;;;;;5094438;27;45359;-70
2023/12/18 06:00:30;;;;;;;;;20.75;17.75;;;;;;;;5085408;27;45721;-69
2023/12/18 06:02:55;;;;;;;;;23.67;12.67;;;;;;;;5203685;22;45382;-70
2023/12/18 06:05:20;;;;;;;;;26.75;16.75;;;;;;;;5092332;27;45549;-71
2023/12/18 06:07:46;;;;;;;;;16.50;14.00;;;;;;;;5093059;27;45505;-70
2023/12/18 06:10:11;;;;;;;;;19.67;15.33;;;;;;;;5068773;27;46352;-72
2023/12/18 06:12:36;;;;;;;;;25.75;18.75;;;;;;;;5091224;27;45422;-72
2023/12/18 06:15:02;;;;;;;;;31.25;18.25;;;;;;;;5086183;27;45538;-70
2023/12/18 06:17:27;;;;;;;;;17.25;14.75;;;;;;;;5094315;27;45570;-72
2023/12/18 06:19:52;;;;;;;;;19.00;14.33;;;;;;;;5089454;27;45957;-71
2023/12/18 06:22:17;;;;;;;;;10.00;10.00;;;;;;;;5089286;27;45492;-70
2023/12/18 06:24:43;;;;;;;;;14.00;13.33;;;;;;;;5070963;27;45633;-70
2023/12/18 06:27:08;;;;;;;;;21.25;13.75;;;;;;;;5073856;27;45560;-70
2023/12/18 06:29:33;;;;;;;;;15.00;11.67;;;;;;;;5089754;27;45379;-70
2023/12/18 06:31:58;;;;;;;;;29.25;19.75;;;;;;;;5093620;27;45525;-70
2023/12/18 06:34:23;;;;;;;;;16.75;13.25;;;;;;;;5093370;27;45424;-72
2023/12/18 06:36:49;;;;;;;;;18.75;14.25;;;;;;;;5095959;27;45422;-70
2023/12/18 06:39:14;;;;;;;;;21.50;15.50;;;;;;;;5084775;27;45890;-70
2023/12/18 06:41:39;;;;;;;;;17.50;17.50;;;;;;;;5088568;27;45478;-71
2023/12/18 06:44:05;;;;;;;;;19.00;15.00;;;;;;;;5093495;27;45364;-72
2023/12/18 06:46:31;;;;;;;;;17.25;14.75;;;;;;;;5084328;27;45383;-72
2023/12/18 06:48:56;;;;;;;;;25.75;17.00;;;;;;;;5090404;27;46586;-71
2023/12/18 06:51:21;;;;;;;;;27.25;17.75;;;;;;;;5091857;27;45592;-72
2023/12/18 06:53:47;;;;;;;;;21.50;18.00;;;;;;;;5094421;27;45930;-72
2023/12/18 06:56:12;;;;;;;;;19.67;14.00;;;;;;;;5087404;27;45564;-70
2023/12/18 06:58:37;;;;;;;;;20.50;18.50;;;;;;;;5084789;27;46443;-71
2023/12/18 07:01:02;;;;;;;;;18.00;16.33;;;;;;;;5086709;27;46829;-72
2023/12/18 07:03:28;;;;;;;;;23.00;15.00;;;;;;;;5088856;27;45945;-70
2023/12/18 07:05:53;;;;;;;;;22.33;18.00;;;;;;;;5086067;27;45259;-70
2023/12/18 07:08:18;;;;;;;;;21.00;14.00;;;;;;;;5086566;27;45702;-70
2023/12/18 07:10:44;;;;;;;;;17.50;16.00;;;;;;;;5083932;27;45319;-70
2023/12/18 07:13:09;;;;;;;;;19.25;14.50;;;;;;;;5093654;27;45338;-71
2023/12/18 07:15:34;;;;;;;;;21.67;14.00;;;;;;;;5089134;27;45249;-71
2023/12/18 07:18:00;;;;;;;;;24.33;19.00;;;;;;;;5085958;27;45533;-69
2023/12/18 07:20:26;;;;;;;;;22.75;17.75;;;;;;;;5090346;27;45460;-68
2023/12/18 07:22:51;;;;;;;;;19.00;16.67;;;;;;;;5097314;27;45552;-69
2023/12/18 07:25:16;;;;;;;;;22.00;21.00;;;;;;;;5089062;27;45754;-72
2023/12/18 07:27:41;;;;;;;;;24.25;17.00;;;;;;;;5080763;27;45577;-68
2023/12/18 07:30:07;;;;;;;;;25.00;17.00;;;;;;;;5060659;28;46146;-72
2023/12/18 07:32:32;;;;;;;;;27.50;17.75;;;;;;;;5081410;27;46399;-74
2023/12/18 07:34:59;;;;;;;;;0.00;0.00;;;;;;;;5088775;27;46656;-73
2023/12/18 07:37:25;;;;;;;;;18.00;16.00;;;;;;;;5087651;27;46524;-73
2023/12/18 07:39:51;;;;;;;;;15.00;13.75;;;;;;;;5086497;27;45626;-73
2023/12/18 07:42:16;;;;;;;;;17.33;16.00;;;;;;;;5091833;27;45464;-73
2023/12/18 07:44:41;;;;;;;;;20.00;15.33;;;;;;;;5097973;27;45399;-73
2023/12/18 07:47:07;;;;;;;;;16.00;12.67;;;;;;;;5088387;27;46927;-72
2023/12/18 07:49:32;;;;;;;;;21.50;16.00;;;;;;;;5092959;27;45739;-71
2023/12/18 07:51:58;;;;;;;;;13.75;12.50;;;;;;;;5089995;27;45418;-70
2023/12/18 07:54:23;;;;;;;;;20.00;13.67;;;;;;;;5092486;27;46743;-70
2023/12/18 07:56:49;;;;;;;;;23.33;13.67;;;;;;;;5091053;27;45600;-69
2023/12/18 07:59:15;;;;;;;;;19.25;14.50;;;;;;;;5092555;27;45389;-71
2023/12/18 08:01:40;;;;;;;;;18.50;16.00;;;;;;;;5095773;27;45764;-69
2023/12/18 08:04:06;;;;;;;;;14.33;13.67;;;;;;;;5071770;27;45534;-72
2023/12/18 08:06:31;;;;;;;;;25.67;15.33;;;;;;;;5090451;27;46239;-70
2023/12/18 08:08:56;;;;;;;;;18.67;13.00;;;;;;;;5086361;27;45291;-70
2023/12/18 08:11:22;;;;;;;;;18.33;16.00;;;;;;;;5094738;27;45506;-71
2023/12/18 08:13:48;;;;;;;;;14.75;11.00;;;;;;;;5093860;27;46135;-69
2023/12/18 08:16:13;;;;;;;;;20.25;17.00;;;;;;;;5093238;27;46662;-71
2023/12/18 08:18:42;;;;;;;;;16.75;14.00;;;;;;;;5095562;27;45407;-68
2023/12/18 08:21:10;;;;;;;;;17.00;14.75;;;;;;;;5090102;27;45493;-71
2023/12/18 08:23:35;;;;;;;;;12.25;12.00;;;;;;;;5085086;27;45433;-69
2023/12/18 08:26:01;;;;;;;;;20.25;16.25;;;;;;;;5097519;27;46415;-68
2023/12/18 08:28:26;;;;;;;;;14.33;14.33;;;;;;;;5094549;27;45416;-68
2023/12/18 08:30:51;;;;;;;;;19.00;14.67;;;;;;;;5095017;27;45472;-67
2023/12/18 08:33:17;;;;;;;;;17.00;14.67;;;;;;;;5091674;27;45473;-68
2023/12/18 08:35:42;;;;;;;;;17.00;10.50;;;;;;;;5098727;27;45611;-68
2023/12/18 08:38:07;;;;;;;;;21.00;12.00;;;;;;;;5095751;27;45283;-68
2023/12/18 08:40:33;;;;;;;;;16.67;16.67;;;;;;;;5089302;27;45480;-68
2023/12/18 08:42:58;;;;;;;;;18.25;13.00;;;;;;;;5091538;27;45720;-68
2023/12/18 08:45:23;;;;;;;;;15.75;14.75;;;;;;;;5091775;27;46385;-68
2023/12/18 08:47:48;;;;;;;;;18.67;13.00;;;;;;;;5094844;27;45642;-68
2023/12/18 08:50:14;;;;;;;;;17.00;12.00;;;;;;;;5094999;27;45440;-68
2023/12/18 08:52:39;;;;;;;;;6.00;6.00;;;;;;;;5085774;27;45498;-69
2023/12/18 08:55:04;;;;;;;;;14.00;12.00;;;;;;;;5074439;27;48743;-68
2023/12/18 08:57:30;;;;;;;;;21.50;13.25;;;;;;;;5088455;27;45639;-68
2023/12/18 08:59:56;;;;;;;;;13.00;9.67;;;;;;;;5093212;27;45552;-69
2023/12/18 09:02:21;;;;;;;;;14.50;12.00;;;;;;;;5076559;27;45482;-68
2023/12/18 09:04:47;;;;;;;;;14.50;12.50;;;;;;;;5093161;27;46570;-69
2023/12/18 09:07:12;;;;;;;;;13.00;11.00;;;;;;;;5095526;27;46310;-69
2023/12/18 09:09:39;;;;;;;;;17.75;10.00;;;;;;;;5093121;27;45465;-68
2023/12/18 09:12:05;;;;;;;;;15.00;9.00;;;;;;;;5073108;27;45595;-68
2023/12/18 09:14:30;;;;;;;;;10.00;10.00;;;;;;;;5090215;27;47020;-69
2023/12/18 09:16:55;;;;;;;;;16.00;13.67;;;;;;;;5088566;27;45433;-69
2023/12/18 09:19:20;;;;;;;;;22.67;14.33;;;;;;;;5086381;27;46045;-67
2023/12/18 09:21:45;;;;;;;;;23.33;16.00;;;;;;;;5088924;27;45632;-68
2023/12/18 09:24:11;;;;;;;;;16.33;14.33;;;;;;;;5092683;27;46736;-68
2023/12/18 09:26:37;;;;;;;;;21.25;10.50;;;;;;;;5094333;27;45475;-69
2023/12/18 09:29:02;;;;;;;;;15.75;13.50;;;;;;;;5087238;27;45449;-68
2023/12/18 09:31:27;;;;;;;;;15.25;12.75;;;;;;;;5091794;27;45413;-68
2023/12/18 09:33:53;;;;;;;;;19.50;12.00;;;;;;;;5093476;27;46618;-67
2023/12/18 09:36:18;;;;;;;;;18.50;12.25;;;;;;;;5093228;27;45466;-68
2023/12/18 09:38:43;;;;;;;;;19.50;14.75;;;;;;;;5087454;27;45487;-68
2023/12/18 09:41:09;;;;;;;;;13.00;11.50;;;;;;;;5092524;27;45520;-67
2023/12/18 09:43:34;;;;;;;;;19.50;15.25;;;;;;;;5090580;27;45922;-67
2023/12/18 09:45:59;;;;;;;;;17.75;12.50;;;;;;;;5093018;27;45520;-67
2023/12/18 09:48:24;;;;;;;;;12.00;9.50;;;;;;;;5091879;27;45568;-67
2023/12/18 09:50:50;;;;;;;;;16.00;15.75;;;;;;;;5090261;27;45491;-67
2023/12/18 09:53:20;;;;;;;;;18.50;14.25;;;;;;;;5090121;27;46616;-68
2023/12/18 09:55:48;;;;;;;;;13.50;13.25;;;;;;;;5087618;27;45518;-68
2023/12/18 09:58:15;;;;;;;;;21.00;17.25;;;;;;;;5089088;27;45438;-69
2023/12/18 10:00:40;;;;;;;;;17.00;16.25;;;;;;;;5092870;27;45430;-69
2023/12/18 10:03:06;;;;;;;;;23.75;18.75;;;;;;;;5091257;27;46095;-68
2023/12/18 10:05:31;;;;;;;;;23.00;16.75;;;;;;;;5090603;27;45488;-67
2023/12/18 10:07:59;;;;;;;;;23.00;16.67;;;;;;;;5093789;27;45403;-67
2023/12/18 10:10:24;;;;;;;;;15.75;12.75;;;;;;;;5093693;27;45504;-67
2023/12/18 10:12:49;;;;;;;;;14.33;14.33;;;;;;;;5096200;27;46599;-67
2023/12/18 10:15:14;;;;;;;;;20.00;16.33;;;;;;;;5088260;27;45479;-67
2023/12/18 10:17:48;;;;;;;;;19.00;14.50;;;;;;;;5093391;27;45417;-67
2023/12/18 10:20:15;;;;;;;;;15.00;14.75;;;;;;;;5093840;27;45496;-67
2023/12/18 10:22:40;;;;;;;;;19.00;17.50;;;;;;;;5095203;27;46504;-67
2023/12/18 10:25:05;;;;;;;;;22.50;17.00;;;;;;;;5096125;27;45662;-68
2023/12/18 10:27:38;;;;;;;;;12.25;11.75;;;;;;;;5093704;27;45569;-69
2023/12/18 10:30:04;;;;;;;;;17.50;12.50;;;;;;;;5088830;27;45560;-68
2023/12/18 10:32:29;;;;;;;;;22.75;12.00;;;;;;;;5091673;27;46024;-66
2023/12/18 10:34:58;;;;;;;;;20.50;15.00;;;;;;;;5092518;27;45262;-67
2023/12/18 10:37:25;;;;;;;;;16.50;14.25;;;;;;;;5094295;27;45370;-67
2023/12/18 10:39:53;;;;;;;;;12.75;12.75;;;;;;;;5088008;27;45456;-66
2023/12/18 10:42:30;;;;;;;;;17.75;14.75;;;;;;;;5091730;27;46742;-67
2023/12/18 10:44:57;;;;;;;;;11.75;11.75;;;;;;;;5091870;27;45405;-66
2023/12/18 10:47:23;;;;;;;;;16.75;12.75;;;;;;;;5093042;27;45940;-67
2023/12/18 10:49:50;;;;;;;;;16.50;14.75;;;;;;;;5094804;27;45497;-68
2023/12/18 10:52:16;;;;;;;;;16.50;16.50;;;;;;;;5093620;27;45802;-67
2023/12/18 10:54:42;;;;;;;;;16.75;14.50;;;;;;;;5091278;27;45445;-68
2023/12/18 10:57:08;;;;;;;;;19.00;14.25;;;;;;;;5095492;27;45566;-70
2023/12/18 10:59:33;;;;;;;;;17.75;13.75;;;;;;;;5066724;27;45426;-68
2023/12/18 11:01:59;;;;;;;;;19.25;11.75;;;;;;;;5094963;27;45806;-68
2023/12/18 11:04:24;;;;;;;;;18.75;15.00;;;;;;;;5087697;27;45620;-72
2023/12/18 11:06:50;;;;;;;;;22.50;19.50;;;;;;;;5091081;27;45453;-70
2023/12/18 11:09:15;;;;;;;;;22.00;16.00;;;;;;;;5067051;27;45582;-72
2023/12/18 11:11:41;;;;;;;;;17.75;13.75;;;;;;;;5093438;27;48055;-70
2023/12/18 11:14:20;;;;;;;;;21.75;17.25;;;;;;;;5087672;27;45542;-68
2023/12/18 11:16:55;;;;;;;;;21.00;13.50;;;;;;;;5089217;27;45458;-69
2023/12/18 11:19:31;;;;;;;;;25.00;17.75;;;;;;;;5088743;27;45583;-71
2023/12/18 11:21:56;;;;;;;;;20.00;15.00;;;;;;;;5090233;27;46915;-68
2023/12/18 11:24:21;;;;;;;;;19.50;16.25;;;;;;;;5091644;27;45537;-70
2023/12/18 11:26:47;;;;;;;;;18.50;15.25;;;;;;;;5091174;27;45563;-71
2023/12/18 11:29:33;;;;;;;;;17.00;15.25;;;;;;;;5086260;27;45658;-69
2023/12/18 11:31:58;;;;;;;;;23.50;16.00;;;;;;;;5088547;27;46282;-69
2023/12/18 11:34:25;;;;;;;;;19.50;18.50;;;;;;;;5090496;27;45482;-69
2023/12/18 11:36:50;;;;;;;;;21.75;14.25;;;;;;;;5089701;27;45437;-70
2023/12/18 11:39:15;;;;;;;;;19.50;12.25;;;;;;;;5070720;27;46795;-71
2023/12/18 11:41:41;;;;;;;;;20.00;13.50;;;;;;;;5091903;27;46929;-71
2023/12/18 11:44:07;;;;;;;;;17.50;12.25;;;;;;;;5093819;27;45915;-68
2023/12/18 11:46:32;;;;;;;;;22.75;14.50;;;;;;;;5091978;27;45445;-69
2023/12/18 11:49:00;;;;;;;;;14.25;14.25;;;;;;;;5092780;27;45510;-69
2023/12/18 11:51:25;;;;;;;;;12.75;9.75;;;;;;;;5092140;27;46886;-69
2023/12/18 11:54:00;;;;;;;;;17.67;9.00;;;;;;;;5071516;27;45434;-68
2023/12/18 11:56:37;;;;;;;;;10.25;8.00;;;;;;;;5090231;27;45581;-69
2023/12/18 11:59:02;;;;;;;;;13.00;8.75;;;;;;;;5087579;27;45564;-69
2023/12/18 12:01:27;;;;;;;;;16.00;12.00;;;;;;;;5085721;27;45587;-68
2023/12/18 12:03:53;;;;;;;;;10.00;8.75;;;;;;;;5092710;27;45494;-70
2023/12/18 12:06:19;;;;;;;;;9.25;7.00;;;;;;;;5088841;27;45456;-68
2023/12/18 12:08:47;;;;;;;;;13.50;10.00;;;;;;;;5088001;27;45476;-69
2023/12/18 12:11:12;;;;;;;;;15.00;12.75;;;;;;;;5086664;27;47471;-68
2023/12/18 12:13:37;;;;;;;;;14.00;11.50;;;;;;;;5089389;27;45412;-70
2023/12/18 12:16:03;;;;;;;;;13.00;10.67;;;;;;;;5088696;27;45438;-72
2023/12/18 12:18:28;;;;;;;;;10.50;8.50;;;;;;;;5090787;27;45662;-70
2023/12/18 12:20:54;;;;;;;;;11.00;9.00;;;;;;;;5091047;27;45858;-69
2023/12/18 12:23:19;;;;;;;;;11.50;9.50;;;;;;;;5092161;27;45367;-68
2023/12/18 12:25:46;;;;;;;;;15.00;10.75;;;;;;;;5090514;27;45502;-70
2023/12/18 12:28:12;;;;;;;;;10.00;8.25;;;;;;;;5082985;27;45710;-71
2023/12/18 12:30:38;;;;;;;;;10.00;9.00;;;;;;;;5084138;27;45500;-68
2023/12/18 12:33:03;;;;;;;;;18.50;9.00;;;;;;;;5086634;27;45280;-70
2023/12/18 12:35:30;;;;;;;;;9.50;8.00;;;;;;;;5085420;27;45515;-69
2023/12/18 12:37:55;;;;;;;;;14.50;12.75;;;;;;;;5094783;27;45441;-69
2023/12/18 12:40:20;;;;;;;;;10.00;10.00;;;;;;;;5091259;27;46644;-69
2023/12/18 12:42:47;;;;;;;;;11.33;10.00;;;;;;;;5095628;27;45436;-69
2023/12/18 12:45:12;;;;;;;;;8.75;6.50;;;;;;;;5097039;27;46055;-70
2023/12/18 12:47:38;;;;;;;;;11.75;7.25;;;;;;;;5090399;27;45560;-68
2023/12/18 12:50:04;;;;;;;;;10.50;8.25;;;;;;;;5088706;27;45884;-69
2023/12/18 12:52:30;;;;;;;;;12.50;9.00;;;;;;;;5091142;27;45512;-69
2023/12/18 12:54:55;;;;;;;;;9.25;9.25;;;;;;;;5095499;27;45501;-70
2023/12/18 12:57:20;;;;;;;;;12.33;7.33;;;;;;;;5076483;27;45592;-69
2023/12/18 12:59:52;;;;;;;;;6.50;6.50;;;;;;;;5095310;27;45796;-69
2023/12/18 13:02:18;;;;;;;;;6.50;4.25;;;;;;;;5092633;27;45521;-69
2023/12/18 13:04:43;;;;;;;;;10.25;9.75;;;;;;;;5095333;27;45665;-69
2023/12/18 13:07:08;;;;;;;;;9.00;7.33;;;;;;;;5093311;27;45786;-71
2023/12/18 13:09:33;;;;;;;;;6.00;5.00;;;;;;;;5085330;27;45735;-69
2023/12/18 13:12:02;;;;;;;;;10.67;10.67;;;;;;;;5085364;27;45335;-68
2023/12/18 13:14:27;;;;;;;;;7.00;6.00;;;;;;;;5092087;27;45619;-69
2023/12/18 13:16:52;;;;;;;;;7.75;6.50;;;;;;;;5090606;27;45546;-68
2023/12/18 13:19:17;;;;;;;;;6.00;6.00;;;;;;;;5094754;27;46518;-69
2023/12/18 13:21:43;;;;;;;;;9.67;7.33;;;;;;;;5091796;27;45379;-68
2023/12/18 13:24:08;;;;;;;;;6.00;6.00;;;;;;;;5090193;27;45523;-68
2023/12/18 13:26:33;;;;;;;;;7.00;5.67;;;;;;;;5092706;27;45617;-68
2023/12/18 13:28:58;;;;;;;;;9.00;9.00;;;;;;;;5095158;27;46404;-69
2023/12/18 13:31:23;;;;;;;;;6.33;5.00;;;;;;;;5074574;27;45326;-69
2023/12/18 13:33:49;;;;;;;;;13.00;9.00;;;;;;;;5093338;27;45318;-67
2023/12/18 13:36:14;;;;;;;;;10.00;6.00;;;;;;;;5075917;27;47030;-68
2023/12/18 13:38:39;;;;;;;;;14.00;6.00;;;;;;;;5091833;27;46311;-70
2023/12/18 13:41:04;;;;;;;;;7.00;5.00;;;;;;;;5086790;27;45640;-68
2023/12/18 13:43:29;;;;;;;;;11.75;7.00;;;;;;;;5087395;27;45474;-70
2023/12/18 13:45:55;;;;;;;;;6.00;6.00;;;;;;;;5090474;27;45530;-70
2023/12/18 13:48:20;;;;;;;;;3.25;0.00;;;;;;;;5088815;27;46614;-70
2023/12/18 13:50:45;;;;;;;;;10.33;6.33;;;;;;;;5094687;27;45615;-69
2023/12/18 13:53:11;;;;;;;;;6.00;6.00;;;;;;;;5096273;27;45371;-68
2023/12/18 13:55:36;;;;;;;;;8.67;8.67;;;;;;;;5090572;27;45520;-68
2023/12/18 13:58:04;;;;;;;;;11.25;11.25;;;;;;;;5092903;27;46501;-69
2023/12/18 14:00:29;;;;;;;;;7.50;7.00;;;;;;;;5094606;27;45410;-68
2023/12/18 14:02:54;;;;;;;;;8.33;6.00;;;;;;;;5066485;27;46819;-68
2023/12/18 14:05:20;;;;;;;;;14.67;6.67;;;;;;;;5093600;27;45434;-69
2023/12/18 14:07:46;;;;;;;;;7.00;6.00;;;;;;;;5092932;27;45638;-68
2023/12/18 14:10:11;;;;;;;;;7.50;6.50;;;;;;;;5095023;27;45409;-69
2023/12/18 14:12:36;;;;;;;;;11.67;7.67;;;;;;;;5066652;27;45568;-68